Time;durP1;ratioP1;P1;durP2;ratioP2;P2;SDS_P1;SDS_P2;PMS_P1;PMS_P2;Temp;Humidity;BMP_temperature;BMP_pressure;BME280_temperature;BME280_humidity;BME280_pressure;Samples;Min_cycle;Max_cycle;Signal;HPM_P1;HPM_P2
2023/11/08 00:02:48;;;;;;;;;;;;;;;7.09;75.81;99843.84;136622;1279;23074;-71
2023/11/08 00:05:49;;;;;;;14.80;7.80;;;;;;;7.03;75.96;99849.89;136787;1279;22450;-72
2023/11/08 00:08:51;;;;;;;17.70;7.40;;;;;;;6.98;76.13;99848.08;136790;1279;22423;-72
2023/11/08 00:11:51;;;;;;;12.90;7.50;;;;;;;6.94;76.06;99847.04;136771;1279;23198;-72
2023/11/08 00:14:57;;;;;;;11.30;6.60;;;;;;;6.88;76.23;99849.59;136799;1280;22361;-71
2023/11/08 00:17:58;;;;;;;16.00;8.20;;;;;;;6.81;76.36;99848.70;136773;1279;23308;-72
2023/11/08 00:21:00;;;;;;;15.80;7.10;;;;;;;6.77;76.73;99852.73;136797;1279;22472;-72
2023/11/08 00:24:04;;;;;;;13.10;7.00;;;;;;;6.73;76.70;99847.00;136776;1272;22411;-72
2023/11/08 00:27:05;;;;;;;14.10;7.10;;;;;;;6.70;76.91;99845.66;136790;1276;22449;-72
2023/11/08 00:30:06;;;;;;;10.90;5.80;;;;;;;6.70;77.07;99847.62;136790;1279;22569;-71
2023/11/08 00:33:07;;;;;;;11.70;6.10;;;;;;;6.69;77.25;99849.15;136757;1280;22456;-71
2023/11/08 00:36:07;;;;;;;9.40;5.50;;;;;;;6.70;77.32;99854.14;136795;1279;22270;-72
2023/11/08 00:39:08;;;;;;;10.30;6.20;;;;;;;6.69;77.60;99856.98;136799;1279;22415;-72
2023/11/08 00:42:08;;;;;;;10.90;6.60;;;;;;;6.69;77.60;99855.28;136613;1279;23559;-71
2023/11/08 00:45:09;;;;;;;12.60;6.60;;;;;;;6.70;77.72;99856.78;136778;1279;22528;-71
2023/11/08 00:48:10;;;;;;;10.30;6.00;;;;;;;6.68;77.76;99851.45;136785;1279;22392;-72
2023/11/08 00:51:11;;;;;;;12.80;6.70;;;;;;;6.66;77.82;99853.27;136819;1280;22480;-72
2023/11/08 00:54:12;;;;;;;10.90;5.80;;;;;;;6.64;77.87;99853.69;136792;1276;22415;-71
2023/11/08 00:57:12;;;;;;;15.20;7.10;;;;;;;6.60;78.01;99852.65;136762;1279;22234;-72
2023/11/08 01:00:14;;;;;;;12.70;6.70;;;;;;;6.60;78.01;99851.89;136682;1279;22484;-71
2023/11/08 01:03:16;;;;;;;12.50;6.10;;;;;;;6.60;77.85;99852.16;136617;1279;23262;-71
2023/11/08 01:06:16;;;;;;;11.40;6.00;;;;;;;6.57;78.17;99852.41;136760;1279;22461;-72
2023/11/08 01:09:20;;;;;;;13.70;6.60;;;;;;;6.54;78.08;99854.16;136787;1279;22455;-72
2023/11/08 01:12:23;;;;;;;11.90;6.10;;;;;;;6.49;78.17;99848.55;136775;1280;22436;-72
2023/11/08 01:15:23;;;;;;;14.00;5.50;;;;;;;6.46;78.26;99844.65;136775;1279;22426;-72
2023/11/08 01:18:24;;;;;;;13.60;6.20;;;;;;;6.43;78.56;99844.77;136794;1279;23610;-71
2023/11/08 01:21:25;;;;;;;16.40;6.60;;;;;;;6.41;78.72;99843.23;136805;1279;22405;-72
2023/11/08 01:24:25;;;;;;;8.70;5.80;;;;;;;6.38;78.63;99839.77;136808;1276;22394;-72
2023/11/08 01:27:26;;;;;;;9.80;6.40;;;;;;;6.38;78.96;99842.61;136773;1278;22407;-71
2023/11/08 01:30:26;;;;;;;11.70;6.40;;;;;;;6.38;79.20;99841.05;136791;1280;22393;-72
2023/11/08 01:33:27;;;;;;;11.50;6.20;;;;;;;6.39;79.26;99837.80;136818;1270;22479;-72
2023/11/08 01:36:30;;;;;;;10.80;5.90;;;;;;;6.41;79.51;99834.27;136798;1279;22420;-71
2023/11/08 01:39:30;;;;;;;18.40;7.50;;;;;;;6.44;79.77;99835.06;136645;1279;22419;-71
2023/11/08 01:42:34;;;;;;;18.80;7.20;;;;;;;6.47;79.94;99834.41;136775;1279;22477;-72
2023/11/08 01:45:34;;;;;;;14.50;6.40;;;;;;;6.49;79.90;99840.36;136752;1279;22448;-72
2023/11/08 01:48:35;;;;;;;9.40;5.90;;;;;;;6.53;80.05;99839.81;136778;1280;22441;-72
2023/11/08 01:51:36;;;;;;;10.80;6.70;;;;;;;6.55;80.33;99837.33;136754;1280;23055;-72
2023/11/08 01:54:39;;;;;;;11.20;6.40;;;;;;;6.57;80.25;99837.49;136805;1273;22438;-72
2023/11/08 01:57:40;;;;;;;10.90;6.70;;;;;;;6.58;80.47;99839.48;136772;1280;22439;-72
2023/11/08 02:00:42;;;;;;;11.80;5.90;;;;;;;6.60;80.57;99841.38;136623;1280;22457;-71
2023/11/08 02:03:43;;;;;;;12.80;6.30;;;;;;;6.62;80.78;99842.92;136752;1280;22388;-71
2023/11/08 02:06:43;;;;;;;12.10;6.30;;;;;;;6.63;80.80;99842.36;136780;1279;22235;-72
2023/11/08 02:09:44;;;;;;;15.90;6.40;;;;;;;6.63;80.91;99844.64;136769;1279;22426;-72
2023/11/08 02:12:50;;;;;;;;;;;;;;;6.64;81.03;99845.56;136788;1280;22408;-71
2023/11/08 02:15:50;;;;;;;10.60;6.10;;;;;;;6.65;81.09;99848.60;136777;1280;22455;-72
2023/11/08 02:18:51;;;;;;;11.00;6.20;;;;;;;6.68;81.14;99850.46;136766;1279;23018;-72
2023/11/08 02:21:51;;;;;;;10.20;6.10;;;;;;;6.72;81.44;99850.44;136737;1279;22434;-72
2023/11/08 02:24:52;;;;;;;13.70;6.30;;;;;;;6.75;81.39;99848.59;136746;1280;22309;-72
2023/11/08 02:27:52;;;;;;;10.40;6.00;;;;;;;6.76;81.40;99853.41;136750;1279;22456;-72
2023/11/08 02:30:54;;;;;;;13.90;6.30;;;;;;;6.78;81.69;99853.73;136634;1279;22515;-72
2023/11/08 02:33:55;;;;;;;12.80;6.30;;;;;;;6.79;81.85;99858.00;136743;1280;23217;-71
2023/11/08 02:36:55;;;;;;;10.40;6.40;;;;;;;6.82;82.02;99862.34;136724;1279;22244;-71
2023/11/08 02:39:56;;;;;;;9.40;6.20;;;;;;;6.83;82.05;99863.58;136760;1279;22449;-71
2023/11/08 02:42:57;;;;;;;11.90;6.40;;;;;;;6.87;82.20;99868.36;136760;1279;22434;-71
2023/11/08 02:45:57;;;;;;;10.00;6.70;;;;;;;6.89;82.25;99869.85;136753;1280;22433;-72
2023/11/08 02:48:59;;;;;;;10.70;6.30;;;;;;;6.92;82.52;99872.36;136745;1279;22229;-71
2023/11/08 02:52:00;;;;;;;12.80;5.70;;;;;;;6.96;82.47;99869.88;136749;1279;23609;-72
2023/11/08 02:55:01;;;;;;;12.60;6.10;;;;;;;6.99;82.58;99874.66;136751;1280;22421;-71
2023/11/08 02:58:02;;;;;;;12.80;6.70;;;;;;;7.03;82.72;99873.84;136770;1279;22402;-72
2023/11/08 03:01:02;;;;;;;10.30;5.90;;;;;;;7.05;82.80;99875.14;136737;1279;22455;-72
2023/11/08 03:04:06;;;;;;;11.30;6.00;;;;;;;7.08;82.69;99875.44;136631;1279;22376;-72
2023/11/08 03:07:07;;;;;;;10.20;6.30;;;;;;;7.08;82.77;99873.63;136734;1279;22443;-72
2023/11/08 03:10:08;;;;;;;9.30;6.20;;;;;;;7.09;82.93;99876.37;136746;1279;23301;-72
2023/11/08 03:13:08;;;;;;;;;;;;;;;7.11;82.96;99880.00;136767;1279;22409;-72
2023/11/08 03:16:09;;;;;;;7.60;4.40;;;;;;;7.13;83.08;99879.30;136635;1277;23036;-72
2023/11/08 03:19:10;;;;;;;12.20;6.20;;;;;;;7.13;83.03;99882.69;136735;1279;22434;-72
2023/11/08 03:22:12;;;;;;;14.30;6.90;;;;;;;7.12;83.12;99885.94;136740;1279;23269;-72
2023/11/08 03:25:13;;;;;;;10.90;6.20;;;;;;;7.12;83.29;99879.25;136760;1280;22413;-72
2023/11/08 03:28:14;;;;;;;;;;;;;;;7.13;83.33;99881.92;136758;1279;22407;-72
2023/11/08 03:31:17;;;;;;;10.90;6.40;;;;;;;7.13;83.32;99880.73;136805;1279;22453;-71
2023/11/08 03:34:18;;;;;;;10.80;6.90;;;;;;;7.13;83.30;99885.31;136774;1279;22472;-72
2023/11/08 03:37:18;;;;;;;9.60;6.70;;;;;;;7.11;83.50;99888.96;136797;1279;22379;-72
2023/11/08 03:40:19;;;;;;;11.10;6.30;;;;;;;7.09;83.51;99891.35;136797;1279;22432;-72
2023/11/08 03:43:19;;;;;;;9.80;6.70;;;;;;;7.06;83.62;99893.42;136779;1279;22393;-72
2023/11/08 03:46:23;;;;;;;13.40;7.20;;;;;;;7.03;83.65;99894.55;136774;1279;22387;-72
2023/11/08 03:49:23;;;;;;;10.90;7.20;;;;;;;7.00;83.77;99893.10;136803;1279;22426;-72
2023/11/08 03:52:24;;;;;;;11.90;6.60;;;;;;;6.98;83.86;99891.86;136791;1279;22467;-72
2023/11/08 03:55:24;;;;;;;10.90;6.20;;;;;;;6.97;84.00;99893.04;136772;1272;22465;-71
2023/11/08 03:58:25;;;;;;;12.70;7.20;;;;;;;6.96;84.21;99894.19;136784;1279;22444;-70
2023/11/08 04:01:25;;;;;;;14.10;7.40;;;;;;;6.95;84.13;99896.90;136776;1279;23330;-72
2023/11/08 04:04:26;;;;;;;10.40;6.60;;;;;;;6.96;84.16;99898.08;136631;1279;23621;-72
2023/11/08 04:07:27;;;;;;;12.80;6.50;;;;;;;6.97;84.41;99897.59;136755;1279;22447;-72
2023/11/08 04:10:29;;;;;;;9.50;6.00;;;;;;;6.97;84.30;99896.16;136769;1279;22398;-72
2023/11/08 04:13:30;;;;;;;8.90;6.30;;;;;;;6.97;84.23;99895.15;136781;1279;23688;-72
2023/11/08 04:16:31;;;;;;;9.10;6.10;;;;;;;6.96;84.31;99897.34;136765;1276;23522;-72
2023/11/08 04:19:32;;;;;;;9.00;6.00;;;;;;;6.93;84.28;99896.70;136784;1279;22392;-72
2023/11/08 04:22:32;;;;;;;;;;;;;;;6.92;84.23;99889.98;136769;1279;22417;-72
2023/11/08 04:25:33;;;;;;;9.10;5.70;;;;;;;6.89;84.36;99895.86;136768;1274;22246;-72
2023/11/08 04:28:38;;;;;;;8.10;5.20;;;;;;;6.87;84.42;99896.63;136756;1276;22408;-72
2023/11/08 04:31:38;;;;;;;7.90;5.70;;;;;;;6.83;83.98;99901.27;136728;1279;23146;-72
2023/11/08 04:34:39;;;;;;;8.60;5.50;;;;;;;6.81;84.25;99905.10;136749;1279;22454;-72
2023/11/08 04:37:40;;;;;;;8.10;5.40;;;;;;;6.78;84.10;99900.71;136737;1279;22488;-72
2023/11/08 04:40:42;;;;;;;7.70;5.60;;;;;;;6.73;83.90;99905.34;136780;1279;23653;-72
2023/11/08 04:43:43;;;;;;;10.50;5.70;;;;;;;6.66;83.83;99906.59;136756;1279;22388;-72
2023/11/08 04:46:43;;;;;;;11.10;5.70;;;;;;;6.60;83.81;99908.05;136762;1272;23218;-72
2023/11/08 04:49:48;;;;;;;9.40;6.40;;;;;;;6.52;83.67;99911.04;136653;1279;22453;-72
2023/11/08 04:52:48;;;;;;;8.60;6.00;;;;;;;6.45;83.64;99908.58;136752;1279;23207;-72
2023/11/08 04:55:49;;;;;;;7.90;5.60;;;;;;;6.35;83.41;99907.59;136784;1279;22393;-72
2023/11/08 04:58:49;;;;;;;8.00;5.70;;;;;;;6.27;83.59;99908.29;136751;1279;23240;-72
2023/11/08 05:01:50;;;;;;;6.60;5.80;;;;;;;6.20;83.65;99909.48;136778;1279;23092;-72
2023/11/08 05:04:50;;;;;;;9.10;5.70;;;;;;;6.14;83.71;99911.80;136774;1279;22287;-72
2023/11/08 05:07:51;;;;;;;7.40;5.50;;;;;;;6.07;83.64;99912.09;136764;1280;23290;-72
2023/11/08 05:10:52;;;;;;;12.30;6.30;;;;;;;6.01;83.66;99910.33;136740;1279;23243;-72
2023/11/08 05:13:54;;;;;;;5.90;4.90;;;;;;;5.97;83.74;99911.62;136766;1279;22456;-72
2023/11/08 05:16:54;;;;;;;7.60;4.90;;;;;;;5.94;83.87;99917.72;136776;1272;22433;-72
2023/11/08 05:19:54;;;;;;;8.00;5.00;;;;;;;5.92;83.88;99917.52;136767;1279;22512;-72
2023/11/08 05:22:55;;;;;;;6.50;5.10;;;;;;;5.87;84.08;99923.77;136744;1279;23188;-72
2023/11/08 05:25:56;;;;;;;6.40;4.70;;;;;;;5.84;84.22;99927.15;136715;1279;22518;-72
2023/11/08 05:28:56;;;;;;;6.30;5.30;;;;;;;5.80;84.35;99926.70;136747;1279;23643;-72
2023/11/08 05:31:57;;;;;;;7.10;5.00;;;;;;;5.78;84.60;99923.88;136720;1279;22501;-72
2023/11/08 05:34:57;;;;;;;7.10;4.90;;;;;;;5.75;84.60;99926.94;136748;1279;22153;-72
2023/11/08 05:38:00;;;;;;;6.50;4.80;;;;;;;5.71;84.79;99930.45;136747;1279;23597;-73
2023/11/08 05:41:01;;;;;;;6.60;4.90;;;;;;;5.68;84.67;99931.14;136773;1279;22249;-72
2023/11/08 05:44:03;;;;;;;7.80;4.60;;;;;;;5.67;85.25;99935.21;136767;1279;23152;-72
2023/11/08 05:47:04;;;;;;;8.20;4.60;;;;;;;5.68;85.25;99939.03;136760;1272;22388;-72
2023/11/08 05:50:07;;;;;;;7.50;4.40;;;;;;;5.67;85.24;99941.60;136720;1279;22391;-73
2023/11/08 05:53:14;;;;;;;7.10;5.40;;;;;;;5.65;85.53;99941.61;136752;1279;23684;-72
2023/11/08 05:56:15;;;;;;;7.10;5.00;;;;;;;5.63;85.78;99945.75;136750;1279;22393;-72
2023/11/08 05:59:20;;;;;;;8.90;4.90;;;;;;;5.64;85.59;99950.63;136758;1279;22220;-73
2023/11/08 06:02:21;;;;;;;9.60;4.70;;;;;;;5.65;85.73;99952.15;136743;1279;22374;-72
2023/11/08 06:05:22;;;;;;;7.30;4.80;;;;;;;5.65;85.80;99953.73;136727;1279;22448;-73
2023/11/08 06:08:23;;;;;;;10.30;4.80;;;;;;;5.65;85.95;99954.39;136725;1279;22455;-73
2023/11/08 06:11:26;;;;;;;6.70;4.60;;;;;;;5.67;85.85;99955.28;136725;1279;22452;-73
2023/11/08 06:14:27;;;;;;;13.50;5.00;;;;;;;5.69;86.08;99956.96;136756;1279;22440;-73
2023/11/08 06:17:30;;;;;;;8.00;4.90;;;;;;;5.70;86.17;99957.44;136630;1274;22439;-73
2023/11/08 06:20:32;;;;;;;8.60;4.70;;;;;;;5.72;86.00;99959.73;136720;1277;22370;-73
2023/11/08 06:23:36;;;;;;;5.00;4.40;;;;;;;5.76;86.08;99964.27;136708;1279;23643;-73
2023/11/08 06:26:41;;;;;;;;;;;;;;;5.81;86.10;99968.48;136724;1279;22442;-73
2023/11/08 06:29:42;;;;;;;5.10;4.30;;;;;;;5.85;86.21;99967.98;136662;1279;22445;-74
2023/11/08 06:32:43;;;;;;;9.40;4.70;;;;;;;5.91;86.21;99976.45;136738;1279;22445;-74
2023/11/08 06:35:43;;;;;;;6.40;4.60;;;;;;;6.00;86.34;99978.75;136761;1279;24451;-74
2023/11/08 06:38:44;;;;;;;6.60;4.40;;;;;;;6.14;86.31;99982.29;136720;1279;23029;-74
2023/11/08 06:41:44;;;;;;;5.40;4.20;;;;;;;6.29;86.71;99986.52;136719;1279;23227;-74
2023/11/08 06:44:45;;;;;;;4.90;4.00;;;;;;;6.40;86.49;99988.27;136719;1279;22399;-74
2023/11/08 06:47:45;;;;;;;5.80;3.60;;;;;;;6.48;86.26;99985.05;136726;1274;22400;-73
2023/11/08 06:50:46;;;;;;;8.40;4.40;;;;;;;6.56;86.27;99988.51;136617;1279;22401;-74
2023/11/08 06:53:46;;;;;;;7.00;4.30;;;;;;;6.63;86.18;99997.16;136735;1279;22425;-75
2023/11/08 06:56:47;;;;;;;9.50;5.20;;;;;;;6.68;86.09;99995.09;136695;1272;22414;-74
2023/11/08 06:59:48;;;;;;;7.20;5.20;;;;;;;6.72;85.82;99991.58;136730;1279;23355;-75
2023/11/08 07:02:48;;;;;;;;;;;;;;;6.73;85.82;99995.19;136720;1279;22447;-75
2023/11/08 07:05:52;;;;;;;7.20;4.40;;;;;;;6.73;85.77;100000.64;136720;1279;22484;-76
2023/11/08 07:08:53;;;;;;;5.90;4.20;;;;;;;6.75;85.61;99999.39;136751;1279;22669;-81
2023/11/08 07:11:53;;;;;;;7.60;4.90;;;;;;;6.76;85.44;100003.89;136725;1279;22427;-79
2023/11/08 07:14:54;;;;;;;;;;;;;;;6.78;85.47;100007.22;136727;1279;23194;-79
2023/11/08 07:17:55;;;;;;;7.90;4.70;;;;;;;6.79;85.40;100006.60;136752;1277;22253;-79
2023/11/08 07:20:57;;;;;;;8.40;3.80;;;;;;;6.77;85.19;100003.41;136716;1279;23101;-77
2023/11/08 07:24:07;;;;;;;4.40;3.20;;;;;;;6.84;85.36;100008.44;136721;1279;22379;-80
2023/11/08 07:27:14;;;;;;;6.40;3.30;;;;;;;6.94;85.40;100007.29;136739;1279;23151;-79
2023/11/08 07:30:17;;;;;;;3.30;2.70;;;;;;;7.01;85.27;100010.79;136646;1279;22459;-79
2023/11/08 07:33:27;;;;;;;5.10;2.70;;;;;;;7.05;85.16;100015.57;136727;1279;23170;-78
2023/11/08 07:36:29;;;;;;;5.00;3.60;;;;;;;7.08;85.01;100014.35;136513;1279;23629;-78
2023/11/08 07:39:29;;;;;;;5.60;3.60;;;;;;;7.13;84.89;100015.44;136692;1279;22432;-76
2023/11/08 07:42:32;;;;;;;3.20;2.90;;;;;;;7.19;84.91;100015.60;136720;1279;22399;-80
2023/11/08 07:45:34;;;;;;;4.00;2.70;;;;;;;7.22;84.74;100016.73;136737;1279;22457;-78
2023/11/08 07:48:35;;;;;;;3.50;2.70;;;;;;;7.27;84.69;100018.00;136727;1279;23088;-80
2023/11/08 07:51:36;;;;;;;4.10;2.60;;;;;;;7.34;84.74;100020.29;136738;1279;22365;-79
2023/11/08 07:54:36;;;;;;;8.50;2.70;;;;;;;7.43;84.64;100019.44;136711;1279;22393;-78
2023/11/08 07:57:39;;;;;;;10.00;3.00;;;;;;;7.52;84.54;100025.60;136712;1279;22447;-78
2023/11/08 08:00:42;;;;;;;7.30;2.70;;;;;;;7.60;84.34;100025.02;136691;1279;23422;-79
2023/11/08 08:03:43;;;;;;;6.30;3.10;;;;;;;7.65;84.24;100023.31;136709;1279;23250;-80
2023/11/08 08:06:43;;;;;;;;;;;;;;;7.68;84.30;100026.82;136710;1279;22465;-80
2023/11/08 08:09:44;;;;;;;5.80;3.20;;;;;;;7.71;84.04;100032.45;136731;1279;22436;-81
2023/11/08 08:12:45;;;;;;;4.30;3.40;;;;;;;7.73;84.01;100033.46;136709;1279;23240;-80
2023/11/08 08:15:46;;;;;;;5.20;3.40;;;;;;;7.74;83.86;100036.32;136765;1279;22449;-80
2023/11/08 08:18:47;;;;;;;5.20;3.30;;;;;;;7.74;83.75;100037.55;136739;1276;22438;-82
2023/11/08 08:21:50;;;;;;;5.00;2.70;;;;;;;7.77;83.64;100039.70;136634;1279;22446;-81
2023/11/08 08:24:50;;;;;;;6.20;3.30;;;;;;;7.83;83.75;100035.25;136700;1279;23162;-81
2023/11/08 08:27:51;;;;;;;5.20;2.50;;;;;;;7.88;83.44;100038.84;136714;1279;22457;-78
2023/11/08 08:30:54;;;;;;;4.90;2.20;;;;;;;7.92;83.44;100036.31;136767;1279;22429;-80
2023/11/08 08:33:57;;;;;;;3.80;2.40;;;;;;;7.97;83.30;100038.10;136655;1279;22532;-81
2023/11/08 08:36:58;;;;;;;4.30;2.30;;;;;;;8.03;83.15;100038.70;136732;1279;22463;-79
2023/11/08 08:39:59;;;;;;;4.20;2.30;;;;;;;8.09;82.99;100039.40;136764;1279;22621;-81
2023/11/08 08:43:00;;;;;;;3.80;2.20;;;;;;;8.18;83.12;100040.29;136731;1279;23082;-79
2023/11/08 08:46:00;;;;;;;2.70;2.30;;;;;;;8.26;82.92;100036.43;136756;1279;22398;-80
2023/11/08 08:49:01;;;;;;;2.50;2.10;;;;;;;8.36;82.82;100036.70;136768;1279;22299;-79
2023/11/08 08:52:01;;;;;;;4.20;2.40;;;;;;;8.46;82.49;100036.91;136786;1279;22391;-80
2023/11/08 08:55:03;;;;;;;12.40;2.50;;;;;;;8.56;82.29;100035.81;136759;1279;22402;-79
2023/11/08 08:58:04;;;;;;;4.50;2.80;;;;;;;8.63;82.20;100035.69;136742;1279;22967;-81
2023/11/08 09:01:06;;;;;;;6.30;3.30;;;;;;;8.71;82.17;100040.77;136752;1279;22424;-81
2023/11/08 09:04:08;;;;;;;4.20;2.50;;;;;;;8.76;81.63;100035.98;136776;1279;23243;-81
2023/11/08 09:07:11;;;;;;;6.90;2.60;;;;;;;8.82;81.62;100038.77;136747;1279;23262;-79
2023/11/08 09:10:12;;;;;;;4.60;2.60;;;;;;;8.87;81.13;100041.94;136746;1279;22416;-79
2023/11/08 09:13:13;;;;;;;2.40;1.90;;;;;;;8.93;81.07;100043.99;136606;1279;22504;-78
2023/11/08 09:16:16;;;;;;;6.50;2.30;;;;;;;9.00;80.82;100043.42;136751;1279;22423;-77
2023/11/08 09:19:17;;;;;;;6.50;2.40;;;;;;;9.06;80.66;100041.80;136778;1279;22429;-80
2023/11/08 09:22:18;;;;;;;5.80;2.50;;;;;;;9.09;80.40;100044.20;136752;1279;22442;-75
2023/11/08 09:25:18;;;;;;;5.00;2.40;;;;;;;9.14;80.34;100041.64;136766;1279;22491;-78
2023/11/08 09:28:19;;;;;;;6.00;2.70;;;;;;;9.18;80.20;100036.43;136751;1279;22458;-78
2023/11/08 09:31:20;;;;;;;6.00;2.30;;;;;;;9.24;79.95;100038.33;136764;1276;22388;-79
2023/11/08 09:34:22;;;;;;;6.00;2.80;;;;;;;9.28;79.75;100039.48;136784;1279;23205;-80
2023/11/08 09:37:22;;;;;;;7.40;2.80;;;;;;;9.35;79.75;100036.23;136757;1279;23060;-79
2023/11/08 09:40:23;;;;;;;5.30;2.20;;;;;;;9.46;79.67;100035.86;136783;1279;22387;-80
2023/11/08 09:43:24;;;;;;;;;;;;;;;9.55;79.37;100035.25;136752;1279;22430;-80
2023/11/08 09:46:26;;;;;;;;;;;;;;;9.62;79.20;100035.48;136780;1279;23484;-78
2023/11/08 09:49:27;;;;;;;7.10;2.40;;;;;;;9.70;78.77;100031.83;136760;1279;22435;-80
2023/11/08 09:52:27;;;;;;;5.60;2.70;;;;;;;9.77;78.49;100032.48;136779;1279;22474;-80
2023/11/08 09:55:28;;;;;;;3.30;2.10;;;;;;;9.85;78.38;100027.09;136779;1279;23601;-77
2023/11/08 09:58:31;;;;;;;5.00;2.30;;;;;;;9.93;78.04;100026.64;136780;1279;22484;-78
2023/11/08 10:01:36;;;;;;;3.40;1.90;;;;;;;9.98;77.85;100021.63;136793;1279;22418;-78
2023/11/08 10:04:39;;;;;;;9.30;2.20;;;;;;;10.00;77.74;100022.95;136783;1279;22398;-76
2023/11/08 10:07:41;;;;;;;5.70;1.90;;;;;;;10.11;77.88;100018.13;136626;1279;22449;-80
2023/11/08 10:10:50;;;;;;;4.30;1.60;;;;;;;10.51;77.51;100010.25;136729;1279;22542;-80
2023/11/08 10:13:53;;;;;;;4.10;1.70;;;;;;;11.06;77.09;100007.48;136647;1279;22369;-80
2023/11/08 10:16:53;;;;;;;2.80;1.50;;;;;;;11.36;75.40;100001.77;136778;1279;22454;-81
2023/11/08 10:19:54;;;;;;;4.00;1.70;;;;;;;11.45;74.42;100001.95;136747;1279;22446;-80
2023/11/08 10:22:55;;;;;;;4.00;1.80;;;;;;;11.72;74.08;99998.06;136748;1279;23248;-81
2023/11/08 10:26:14;;;;;;;;;;;;;;;11.85;73.34;99997.61;136753;1279;22499;-80
2023/11/08 10:29:16;;;;;;;4.40;1.70;;;;;;;12.06;73.73;99992.80;136600;1279;238795;-81
2023/11/08 10:32:24;;;;;;;3.40;1.70;;;;;;;12.38;72.04;99991.55;136614;1279;22482;-80
2023/11/08 10:35:25;;;;;;;2.70;1.50;;;;;;;12.46;70.95;99988.14;136638;1279;22467;-79
2023/11/08 10:38:27;;;;;;;2.90;1.60;;;;;;;12.35;69.97;99990.92;136788;1275;22423;-80
2023/11/08 10:41:29;;;;;;;4.00;1.90;;;;;;;12.14;69.96;99989.27;136770;1272;23283;-81
2023/11/08 10:44:29;;;;;;;5.00;1.70;;;;;;;11.96;69.69;99984.65;136611;1279;22479;-81
2023/11/08 10:47:30;;;;;;;4.40;1.30;;;;;;;11.76;69.68;99985.63;136588;1279;22475;-80
2023/11/08 10:50:36;;;;;;;8.20;1.80;;;;;;;11.51;69.29;99982.81;136761;1279;23273;-81
2023/11/08 10:53:36;;;;;;;3.70;1.70;;;;;;;11.26;69.14;99984.73;136626;1279;22466;-79
2023/11/08 10:56:40;;;;;;;2.20;1.40;;;;;;;11.02;69.15;99983.31;136740;1276;22402;-80
2023/11/08 10:59:42;;;;;;;2.30;1.70;;;;;;;10.81;69.37;99986.21;136620;1279;23029;-80
2023/11/08 11:02:50;;;;;;;4.00;1.60;;;;;;;10.59;69.43;99985.45;136557;1279;22370;-80
2023/11/08 11:05:56;;;;;;;3.80;1.70;;;;;;;10.44;69.48;99986.63;136757;1279;22364;-81
2023/11/08 11:08:58;;;;;;;5.30;1.60;;;;;;;10.29;69.90;99983.49;136750;1279;23137;-81
2023/11/08 11:12:07;;;;;;;3.10;1.50;;;;;;;10.20;70.47;99984.38;136762;1279;22359;-81
2023/11/08 11:15:20;;;;;;;4.80;2.40;;;;;;;10.16;70.69;99984.38;136619;1279;22430;-80
2023/11/08 11:18:32;;;;;;;4.50;2.70;;;;;;;10.14;70.88;99985.08;136549;1279;22409;-80
2023/11/08 11:21:45;;;;;;;3.50;1.80;;;;;;;10.14;70.77;99985.41;136624;1279;22421;-80
2023/11/08 11:24:48;;;;;;;3.60;2.00;;;;;;;10.21;70.94;99982.85;136611;1279;22458;-80
2023/11/08 11:27:51;;;;;;;4.80;1.90;;;;;;;10.29;70.77;99980.90;136760;1276;22421;-81
2023/11/08 11:30:53;;;;;;;4.80;2.30;;;;;;;10.38;70.74;99981.40;136784;1279;22436;-80
2023/11/08 11:33:53;;;;;;;5.50;2.10;;;;;;;10.50;70.59;99983.49;136618;1275;22416;-80
2023/11/08 11:37:08;;;;;;;4.50;2.20;;;;;;;10.57;70.04;99982.55;136579;1279;23134;-80
2023/11/08 11:40:14;;;;;;;4.60;1.90;;;;;;;10.57;69.78;99979.86;136739;1279;22374;-80
2023/11/08 11:43:29;;;;;;;4.80;1.60;;;;;;;10.55;69.64;99975.98;136608;1275;22369;-80
2023/11/08 11:46:30;;;;;;;3.40;1.70;;;;;;;10.51;69.30;99976.75;136782;1279;22396;-80
2023/11/08 11:49:31;;;;;;;;;;;;;;;10.47;68.94;99974.44;136800;1279;22406;-80
2023/11/08 11:52:33;;;;;;;3.00;1.60;;;;;;;10.37;68.74;99975.84;136787;1279;22388;-80
2023/11/08 11:55:36;;;;;;;3.90;2.20;;;;;;;10.30;68.70;99976.63;136763;1279;22380;-80
2023/11/08 11:58:36;;;;;;;3.70;1.80;;;;;;;10.23;69.05;99987.38;136789;1279;22377;-80
2023/11/08 12:01:40;;;;;;;4.10;1.40;;;;;;;10.17;69.02;99991.27;136777;1279;23553;-80
2023/11/08 12:04:44;;;;;;;2.70;1.20;;;;;;;10.11;68.98;99994.40;136788;1279;22286;-80
2023/11/08 12:07:48;;;;;;;2.10;1.60;;;;;;;10.05;68.89;99994.86;136640;1279;22423;-79
2023/11/08 12:10:49;;;;;;;5.50;2.00;;;;;;;10.00;68.76;99998.04;136596;1279;22432;-80
2023/11/08 12:13:50;;;;;;;5.20;2.00;;;;;;;9.98;69.06;100003.61;136788;1279;22456;-79
2023/11/08 12:16:51;;;;;;;1.80;1.50;;;;;;;9.97;69.43;100006.70;136556;1279;22424;-80
2023/11/08 12:19:52;;;;;;;;;;;;;;;9.93;69.72;100009.11;136623;1279;22432;-80
2023/11/08 12:22:53;;;;;;;5.20;2.00;;;;;;;9.85;70.03;100013.65;136798;1279;22220;-80
2023/11/08 12:25:54;;;;;;;6.70;1.70;;;;;;;9.80;70.46;100019.79;136775;1279;22399;-80
2023/11/08 12:28:56;;;;;;;3.50;1.70;;;;;;;9.74;70.58;100019.91;136782;1265;22440;-80
2023/11/08 12:32:03;;;;;;;4.90;1.60;;;;;;;9.63;70.99;100029.77;136773;1279;22426;-79
2023/11/08 12:35:04;;;;;;;2.60;1.40;;;;;;;9.53;71.87;100031.04;136776;1279;22444;-79
2023/11/08 12:38:05;;;;;;;3.60;1.70;;;;;;;9.42;72.52;100027.38;136627;1279;23060;-79
2023/11/08 12:41:07;;;;;;;2.70;1.10;;;;;;;9.34;73.08;100021.76;136567;1279;22558;-79
2023/11/08 12:44:08;;;;;;;3.30;1.60;;;;;;;9.28;73.29;100023.61;136623;1279;23009;-79
2023/11/08 12:47:09;;;;;;;4.20;1.40;;;;;;;9.26;73.44;100021.69;136792;1279;22357;-80
2023/11/08 12:50:14;;;;;;;3.60;1.30;;;;;;;9.24;73.72;100025.76;136687;1279;22269;-80
2023/11/08 12:53:15;;;;;;;3.70;0.90;;;;;;;9.21;73.78;100027.70;136599;1279;22461;-80
2023/11/08 12:56:15;;;;;;;;;;;;;;;9.20;74.18;100028.08;136682;1279;22407;-80
2023/11/08 12:59:19;;;;;;;2.50;1.40;;;;;;;9.17;74.62;100029.84;136791;1279;22430;-80
2023/11/08 13:02:19;;;;;;;5.60;3.50;;;;;;;9.12;74.65;100027.41;136568;1279;22460;-80
2023/11/08 13:05:23;;;;;;;;;;;;;;;9.10;74.66;100027.95;136715;1279;23202;-79
2023/11/08 13:08:28;;;;;;;2.30;1.50;;;;;;;9.09;75.01;100025.96;136776;1279;22467;-80
2023/11/08 13:11:31;;;;;;;3.20;1.90;;;;;;;9.11;75.21;100026.80;136559;1279;22423;-79
2023/11/08 13:14:31;;;;;;;3.90;1.20;;;;;;;9.14;75.27;100027.90;136620;1278;22462;-80
2023/11/08 13:17:32;;;;;;;2.60;1.20;;;;;;;9.18;75.52;100030.77;136605;1279;22448;-80
2023/11/08 13:20:33;;;;;;;4.80;1.90;;;;;;;9.21;75.49;100028.73;136631;1279;22423;-80
2023/11/08 13:23:39;;;;;;;5.60;2.00;;;;;;;9.22;75.58;100030.42;136634;1275;22381;-80
2023/11/08 13:26:40;;;;;;;2.70;1.90;;;;;;;9.22;75.52;100027.73;136577;1271;22471;-80
2023/11/08 13:29:44;;;;;;;3.00;1.40;;;;;;;9.21;75.48;100029.10;136564;1279;22461;-80
2023/11/08 13:32:48;;;;;;;7.00;3.70;;;;;;;9.19;75.65;100028.79;136762;1276;22418;-80
2023/11/08 13:35:51;;;;;;;15.10;6.40;;;;;;;9.17;75.69;100027.36;136611;1279;22444;-80
2023/11/08 13:38:54;;;;;;;5.80;2.60;;;;;;;9.12;75.62;100023.63;136618;1279;22438;-82
2023/11/08 13:41:58;;;;;;;3.60;2.10;;;;;;;9.12;75.76;100031.08;136602;1279;22456;-80
2023/11/08 13:45:00;;;;;;;4.30;2.70;;;;;;;9.13;76.02;100027.64;136777;1279;22549;-81
2023/11/08 13:48:04;;;;;;;4.30;3.00;;;;;;;9.10;75.90;100024.55;136617;1279;22394;-81
2023/11/08 13:51:07;;;;;;;7.50;2.60;;;;;;;9.08;76.10;100024.08;136760;1279;22400;-80
2023/11/08 13:54:08;;;;;;;2.70;1.70;;;;;;;9.07;76.22;100022.73;136622;1279;23024;-80
2023/11/08 13:57:08;;;;;;;2.90;1.60;;;;;;;9.06;76.25;100026.91;136796;1279;22363;-80
2023/11/08 14:00:11;;;;;;;3.70;1.70;;;;;;;9.04;76.44;100025.02;136789;1279;23052;-80
2023/11/08 14:03:14;;;;;;;3.60;1.70;;;;;;;9.02;76.54;100023.48;136794;1279;22402;-80
2023/11/08 14:06:15;;;;;;;3.30;1.70;;;;;;;9.00;76.63;100022.84;136786;1279;22438;-80
2023/11/08 14:09:16;;;;;;;6.00;2.50;;;;;;;8.97;76.75;100025.00;136809;1279;22410;-81
2023/11/08 14:12:17;;;;;;;7.60;3.60;;;;;;;8.94;76.96;100021.23;136631;1279;22529;-80
2023/11/08 14:15:18;;;;;;;7.70;3.40;;;;;;;8.96;77.04;100020.39;136809;1279;23124;-80